createdAt,value
2022-10-19T00:01:20.051Z,4.83
2022-10-19T00:06:26.908Z,4.10
2022-10-19T00:09:14.092Z,7.03
2022-10-19T00:11:42.984Z,4.17
2022-10-19T00:14:14.356Z,5.40
2022-10-19T00:16:41.655Z,7.47
2022-10-19T00:19:11.904Z,3.00
2022-10-19T00:21:39.741Z,5.63
2022-10-19T00:24:07.600Z,4.90
2022-10-19T00:26:34.870Z,6.03
2022-10-19T00:29:02.454Z,3.60
2022-10-19T00:31:29.764Z,4.80
2022-10-19T00:33:57.479Z,3.60
2022-10-19T00:36:30.127Z,3.60
2022-10-19T00:38:57.713Z,5.63
2022-10-19T00:41:26.573Z,3.83
2022-10-19T00:44:01.874Z,5.70
2022-10-19T00:46:31.042Z,5.40
2022-10-19T00:49:01.307Z,3.67
2022-10-19T00:51:29.533Z,8.40
2022-10-19T00:53:57.241Z,5.27
2022-10-19T00:56:24.366Z,3.17
2022-10-19T00:58:51.692Z,6.40
2022-10-19T01:01:20.626Z,4.47
2022-10-19T01:03:47.905Z,5.20
2022-10-19T01:06:15.188Z,4.83
2022-10-19T01:08:42.294Z,5.63
2022-10-19T01:11:35.839Z,5.73
2022-10-19T01:14:24.346Z,4.83
2022-10-19T01:16:58.642Z,4.73
2022-10-19T01:19:47.808Z,4.63
2022-10-19T01:22:38.872Z,5.60
2022-10-19T01:25:22.767Z,4.53
2022-10-19T01:27:52.667Z,4.63
2022-10-19T01:30:38.334Z,4.13
2022-10-19T01:33:46.394Z,8.00
2022-10-19T01:36:21.832Z,2.63
2022-10-19T01:38:59.930Z,3.27
2022-10-19T01:41:58.487Z,2.50
2022-10-19T01:44:49.109Z,3.60
2022-10-19T01:47:32.551Z,3.37
2022-10-19T01:50:03.844Z,10.17
2022-10-19T01:52:31.012Z,7.33
2022-10-19T01:54:59.249Z,3.80
2022-10-19T01:57:28.709Z,9.20
2022-10-19T01:59:56.000Z,4.67
2022-10-19T02:02:23.114Z,2.57
2022-10-19T02:04:50.309Z,3.20
2022-10-19T02:07:17.558Z,5.37
2022-10-19T02:09:44.645Z,8.80
2022-10-19T02:12:11.849Z,7.23
2022-10-19T02:14:44.205Z,4.00
2022-10-19T02:17:17.410Z,3.70
2022-10-19T02:19:44.553Z,3.10
2022-10-19T02:22:12.567Z,3.03
2022-10-19T02:24:40.057Z,4.53
2022-10-19T02:27:07.249Z,12.30
2022-10-19T02:29:34.348Z,3.57
2022-10-19T02:32:01.765Z,3.60
2022-10-19T02:34:28.864Z,6.67
2022-10-19T02:36:56.093Z,3.67
2022-10-19T02:39:23.233Z,4.00
2022-10-19T02:42:02.199Z,4.20
2022-10-19T02:44:51.931Z,7.70
2022-10-19T02:47:20.989Z,3.63
2022-10-19T02:49:48.027Z,4.70
2022-10-19T02:52:15.748Z,3.57
2022-10-19T02:54:43.856Z,6.53
2022-10-19T02:57:18.725Z,7.47
2022-10-19T02:59:46.129Z,3.40
2022-10-19T03:02:14.359Z,3.50
2022-10-19T03:07:16.051Z,4.57
2022-10-19T03:09:43.769Z,4.43
2022-10-19T03:12:11.860Z,6.03
2022-10-19T03:14:38.950Z,4.17
2022-10-19T03:17:06.108Z,6.87
2022-10-19T03:19:33.396Z,5.10
2022-10-19T03:22:00.653Z,3.60
2022-10-19T03:24:27.850Z,6.63
2022-10-19T03:26:55.156Z,4.43
2022-10-19T03:29:22.228Z,6.03
2022-10-19T03:31:49.966Z,6.00
2022-10-19T03:34:17.275Z,3.30
2022-10-19T03:36:44.417Z,2.70
2022-10-19T03:39:12.574Z,6.33
2022-10-19T03:41:39.874Z,6.60
2022-10-19T03:44:07.570Z,4.80
2022-10-19T03:46:35.178Z,2.97
2022-10-19T03:49:02.658Z,2.90
2022-10-19T03:51:30.256Z,4.43
2022-10-19T03:54:02.042Z,5.20
2022-10-19T03:56:29.744Z,9.23
2022-10-19T03:58:57.627Z,6.57
2022-10-19T04:01:29.760Z,3.27
2022-10-19T04:03:58.216Z,6.37
2022-10-19T04:06:30.151Z,7.13
2022-10-19T04:08:57.474Z,7.90
2022-10-19T04:11:27.317Z,5.63
2022-10-19T04:13:54.931Z,4.03
2022-10-19T04:16:22.423Z,4.57
2022-10-19T04:18:50.389Z,5.63
2022-10-19T04:21:22.067Z,3.47
2022-10-19T04:23:49.348Z,3.47
2022-10-19T04:26:16.579Z,6.20
2022-10-19T04:28:43.931Z,6.23
2022-10-19T04:31:11.550Z,6.40
2022-10-19T04:33:39.099Z,3.50
2022-10-19T04:36:08.078Z,4.40
2022-10-19T04:38:35.363Z,3.57
2022-10-19T04:41:04.032Z,7.60
2022-10-19T04:43:31.401Z,7.43
2022-10-19T04:46:03.117Z,5.37
2022-10-19T04:48:30.416Z,5.70
2022-10-19T04:50:57.486Z,6.27
2022-10-19T04:55:52.694Z,4.03
2022-10-19T04:58:19.781Z,8.07
2022-10-19T05:00:47.085Z,7.47
2022-10-19T05:03:14.384Z,8.90
2022-10-19T05:05:41.599Z,6.40
2022-10-19T05:08:09.162Z,5.97
2022-10-19T05:10:37.201Z,6.97
2022-10-19T05:13:04.353Z,6.10
2022-10-19T05:15:31.599Z,6.87
2022-10-19T05:17:58.741Z,5.40
2022-10-19T05:20:25.940Z,4.23
2022-10-19T05:22:53.000Z,4.20
2022-10-19T05:25:20.200Z,7.80
2022-10-19T05:27:51.612Z,2.93
2022-10-19T05:30:20.145Z,5.97
2022-10-19T05:32:47.350Z,4.30
2022-10-19T05:35:17.453Z,3.33
2022-10-19T05:37:47.241Z,12.67
2022-10-19T05:40:14.498Z,6.33
2022-10-19T05:42:41.678Z,8.33
2022-10-19T05:45:09.224Z,18.23
2022-10-19T05:47:36.915Z,7.63
2022-10-19T05:50:04.579Z,2.47
2022-10-19T05:52:31.857Z,9.13
2022-10-19T05:54:59.082Z,12.50
2022-10-19T05:57:26.272Z,12.97
2022-10-19T05:59:56.905Z,8.97
2022-10-19T06:02:24.282Z,9.07
2022-10-19T06:04:51.456Z,8.60
2022-10-19T06:07:18.701Z,8.13
2022-10-19T06:09:46.217Z,8.93
2022-10-19T06:12:15.748Z,5.90
2022-10-19T06:14:43.661Z,3.07
2022-10-19T06:17:11.028Z,4.23
2022-10-19T06:19:38.264Z,5.37
2022-10-19T06:22:05.502Z,5.27
2022-10-19T06:24:32.637Z,10.40
2022-10-19T06:26:59.885Z,2.90
2022-10-19T06:29:27.099Z,4.87
2022-10-19T06:31:56.161Z,5.93
2022-10-19T06:34:23.479Z,9.13
2022-10-19T06:36:50.803Z,6.93
2022-10-19T06:39:18.115Z,7.90
2022-10-19T06:41:45.148Z,7.00
2022-10-19T06:44:12.458Z,5.70
2022-10-19T06:46:39.499Z,4.77
2022-10-19T06:49:06.604Z,10.27
2022-10-19T06:51:34.386Z,7.97
2022-10-19T06:54:01.589Z,6.67
2022-10-19T06:56:28.875Z,5.47
2022-10-19T06:58:57.143Z,10.03
2022-10-19T07:01:24.484Z,5.63
2022-10-19T07:03:52.273Z,4.07
2022-10-19T07:06:19.837Z,19.93
2022-10-19T07:08:47.108Z,21.33
2022-10-19T07:11:19.113Z,11.03
2022-10-19T07:13:46.354Z,9.80
2022-10-19T07:16:17.989Z,11.67
2022-10-19T07:18:48.512Z,9.43
2022-10-19T07:21:16.025Z,13.80
2022-10-19T07:23:43.734Z,8.67
2022-10-19T07:26:15.895Z,8.17
2022-10-19T07:28:44.074Z,7.60
2022-10-19T07:31:15.695Z,7.70
2022-10-19T07:33:42.954Z,11.93
2022-10-19T07:36:10.554Z,11.77
2022-10-19T07:38:37.679Z,9.93
2022-10-19T07:41:13.450Z,9.40
2022-10-19T07:43:41.273Z,15.60
2022-10-19T07:46:10.883Z,11.53
2022-10-19T07:48:37.922Z,10.63
2022-10-19T07:51:06.262Z,10.43
2022-10-19T07:53:34.299Z,10.20
2022-10-19T07:56:05.803Z,11.40
2022-10-19T07:58:32.990Z,14.00
2022-10-19T08:01:10.483Z,9.70
2022-10-19T08:06:24.760Z,7.50
2022-10-19T08:08:52.093Z,8.47
2022-10-19T08:11:23.248Z,10.17
2022-10-19T08:13:50.455Z,15.27
2022-10-19T08:16:36.598Z,8.27
2022-10-19T08:19:07.258Z,5.20
2022-10-19T08:21:34.375Z,5.23
2022-10-19T08:24:01.477Z,5.60
2022-10-19T08:26:29.533Z,8.67
2022-10-19T08:29:03.689Z,8.47
2022-10-19T08:31:30.764Z,6.83
2022-10-19T08:33:57.973Z,8.03
2022-10-19T08:36:26.296Z,8.00
2022-10-19T08:38:53.600Z,6.00
2022-10-19T08:41:26.432Z,4.73
2022-10-19T08:44:22.798Z,5.50
2022-10-19T08:47:31.500Z,6.27
2022-10-19T08:49:58.712Z,3.67
2022-10-19T08:52:34.786Z,3.93
2022-10-19T08:55:09.355Z,5.30
2022-10-19T08:58:07.388Z,6.40
2022-10-19T09:00:52.442Z,5.23
2022-10-19T09:03:54.386Z,4.63
2022-10-19T09:06:25.250Z,4.20
2022-10-19T09:08:53.506Z,2.70
2022-10-19T09:11:34.751Z,3.20
2022-10-19T09:14:19.159Z,5.17
2022-10-19T09:16:46.697Z,3.80
2022-10-19T09:19:25.858Z,4.60
2022-10-19T09:21:57.274Z,3.87
2022-10-19T09:24:55.757Z,5.53
2022-10-19T09:27:24.334Z,3.03
2022-10-19T09:29:58.403Z,5.03
2022-10-19T09:32:35.982Z,4.67
2022-10-19T09:35:05.754Z,4.90
2022-10-19T09:37:33.308Z,6.23
2022-10-19T09:40:00.441Z,17.00
2022-10-19T09:42:33.860Z,10.27
2022-10-19T09:45:22.274Z,2.57
2022-10-19T09:47:49.472Z,4.00
2022-10-19T09:50:21.364Z,7.00
2022-10-19T09:52:58.909Z,6.40
2022-10-19T09:55:29.700Z,5.77
2022-10-19T09:58:04.341Z,4.63
2022-10-19T10:00:38.079Z,2.60
2022-10-19T10:03:06.201Z,4.83
2022-10-19T10:05:38.304Z,2.97
2022-10-19T10:08:12.900Z,1.83
2022-10-19T10:10:43.150Z,1.93
2022-10-19T10:13:20.971Z,1.97
2022-10-19T10:15:49.548Z,4.83
2022-10-19T10:18:17.349Z,5.60
2022-10-19T10:21:25.701Z,2.80
2022-10-19T10:24:05.909Z,2.30
2022-10-19T10:26:38.630Z,1.70
2022-10-19T10:29:36.746Z,2.60
2022-10-19T10:32:08.348Z,2.47
2022-10-19T10:34:50.162Z,1.97
2022-10-19T10:37:24.519Z,2.40
2022-10-19T10:39:53.402Z,3.70
2022-10-19T10:42:22.660Z,2.63
2022-10-19T10:44:51.454Z,2.70
2022-10-19T10:47:20.677Z,4.77
2022-10-19T10:49:57.274Z,6.33
2022-10-19T10:52:24.361Z,1.70
2022-10-19T10:55:11.747Z,3.03
2022-10-19T10:57:40.856Z,2.30
2022-10-19T11:00:11.444Z,2.10
2022-10-19T11:02:58.712Z,2.50
2022-10-19T11:05:29.392Z,2.27
2022-10-19T11:08:13.340Z,1.90
2022-10-19T11:10:55.628Z,3.33
2022-10-19T11:13:49.203Z,3.97
2022-10-19T11:16:18.187Z,2.30
2022-10-19T11:18:54.135Z,1.97
2022-10-19T11:21:34.669Z,3.83
2022-10-19T11:24:16.917Z,7.00
2022-10-19T11:27:20.731Z,3.67
2022-10-19T11:30:00.588Z,2.67
2022-10-19T11:32:46.076Z,2.07
2022-10-19T11:35:34.450Z,3.00
2022-10-19T11:38:20.855Z,6.90
2022-10-19T11:41:21.531Z,7.57
2022-10-19T11:44:06.630Z,4.73
2022-10-19T11:46:42.513Z,4.83
2022-10-19T11:49:46.501Z,6.23
2022-10-19T11:52:47.536Z,7.20
2022-10-19T11:55:29.673Z,7.70
2022-10-19T11:58:02.664Z,5.83
2022-10-19T12:00:45.086Z,4.97
2022-10-19T12:03:32.007Z,4.97
2022-10-19T12:06:16.392Z,6.13
2022-10-19T12:09:02.161Z,9.73
2022-10-19T12:11:41.478Z,7.97
2022-10-19T12:14:16.919Z,5.60
2022-10-19T12:16:50.371Z,11.80
2022-10-19T12:19:23.223Z,8.80
2022-10-19T12:21:50.719Z,7.43
2022-10-19T12:24:20.112Z,6.50
2022-10-19T12:26:47.582Z,5.87
2022-10-19T12:29:35.886Z,5.77
2022-10-19T12:32:03.338Z,5.07
2022-10-19T12:34:36.045Z,5.53
2022-10-19T12:37:25.715Z,8.57
2022-10-19T12:40:14.040Z,5.87
2022-10-19T12:42:52.044Z,6.73
2022-10-19T12:45:31.033Z,7.13
2022-10-19T12:48:11.305Z,11.40
2022-10-19T12:50:50.401Z,11.77
2022-10-19T12:53:28.284Z,9.23
2022-10-19T12:56:25.333Z,22.90
2022-10-19T12:59:01.510Z,10.87
2022-10-19T13:01:48.964Z,9.83
2022-10-19T13:04:35.938Z,7.27
2022-10-19T13:07:08.437Z,5.43
2022-10-19T13:09:39.810Z,11.00
2022-10-19T13:12:19.624Z,5.60
2022-10-19T13:14:58.807Z,5.43
2022-10-19T13:17:35.146Z,6.90
2022-10-19T13:20:14.519Z,9.00
2022-10-19T13:22:59.581Z,6.10
2022-10-19T13:25:33.320Z,7.57
2022-10-19T13:28:01.772Z,6.03
2022-10-19T13:30:49.170Z,5.90
2022-10-19T13:33:35.101Z,6.27
2022-10-19T13:36:02.734Z,7.13
2022-10-19T13:38:33.561Z,5.77
2022-10-19T13:41:05.289Z,7.50
2022-10-19T13:43:49.152Z,5.70
2022-10-19T13:46:20.500Z,6.33
2022-10-19T13:49:14.761Z,6.87
2022-10-19T13:52:00.274Z,8.07
2022-10-19T13:54:39.301Z,8.20
2022-10-19T13:57:19.298Z,8.53
2022-10-19T14:00:10.011Z,6.33
2022-10-19T14:03:12.499Z,7.23
2022-10-19T14:05:56.848Z,9.43
2022-10-19T14:08:33.534Z,6.77
2022-10-19T14:11:05.251Z,7.57
2022-10-19T14:13:32.459Z,8.60
2022-10-19T14:16:01.674Z,10.87
2022-10-19T14:18:33.699Z,9.70
2022-10-19T14:21:02.387Z,10.03
2022-10-19T14:23:41.903Z,12.47
2022-10-19T14:26:19.750Z,12.30
2022-10-19T14:28:46.901Z,14.10
2022-10-19T14:31:18.794Z,15.20
2022-10-19T14:33:47.015Z,12.50
2022-10-19T14:36:20.457Z,11.73
2022-10-19T14:38:48.619Z,16.00
2022-10-19T14:41:28.075Z,8.87
2022-10-19T14:43:58.368Z,7.60
2022-10-19T14:46:30.010Z,7.40
2022-10-19T14:49:05.148Z,7.00
2022-10-19T14:51:41.493Z,6.83
2022-10-19T14:54:29.100Z,8.27
2022-10-19T14:57:00.231Z,6.97
2022-10-19T14:59:38.945Z,6.67
2022-10-19T15:02:17.909Z,7.93
2022-10-19T15:04:45.117Z,6.50
2022-10-19T15:07:25.633Z,6.80
2022-10-19T15:09:58.485Z,7.83
2022-10-19T15:12:37.396Z,8.40
2022-10-19T15:15:10.194Z,9.77
2022-10-19T15:17:38.015Z,8.83
2022-10-19T15:20:05.826Z,12.17
2022-10-19T15:22:33.109Z,10.93
2022-10-19T15:25:09.204Z,11.77
2022-10-19T15:27:45.675Z,10.47
2022-10-19T15:30:18.695Z,10.17
2022-10-19T15:32:46.644Z,13.20
2022-10-19T15:35:23.834Z,12.63
2022-10-19T15:37:51.078Z,15.13
2022-10-19T15:40:24.365Z,21.97
2022-10-19T15:42:51.523Z,13.20
2022-10-19T15:45:37.761Z,13.13
2022-10-19T15:48:10.872Z,12.17
2022-10-19T15:50:43.177Z,14.17
2022-10-19T15:53:10.513Z,14.73
2022-10-19T15:55:37.632Z,13.70
2022-10-19T15:58:04.745Z,13.10
2022-10-19T16:00:31.997Z,13.83
2022-10-19T16:02:59.074Z,15.23
2022-10-19T16:05:26.181Z,15.30
2022-10-19T16:07:53.242Z,13.20
2022-10-19T16:10:22.843Z,15.63
2022-10-19T16:12:49.937Z,17.63
2022-10-19T16:15:22.347Z,16.77
2022-10-19T16:17:51.279Z,15.43
2022-10-19T16:20:18.519Z,16.03
2022-10-19T16:22:45.984Z,14.10
2022-10-19T16:25:13.189Z,18.67
2022-10-19T16:27:40.539Z,17.13
2022-10-19T16:30:08.301Z,16.13
2022-10-19T16:32:35.458Z,17.27
2022-10-19T16:35:02.762Z,16.13
2022-10-19T16:37:29.796Z,14.47
2022-10-19T16:39:56.959Z,15.57
2022-10-19T16:42:29.669Z,14.73
2022-10-19T16:44:57.707Z,13.13
2022-10-19T16:47:25.017Z,15.80
2022-10-19T16:50:00.593Z,14.13
2022-10-19T16:52:28.794Z,13.53
2022-10-19T16:54:55.875Z,12.63
2022-10-19T16:57:23.017Z,14.77
2022-10-19T17:02:23.566Z,15.53
2022-10-19T17:04:50.611Z,15.33
2022-10-19T17:07:17.793Z,14.40
2022-10-19T17:09:45.108Z,12.70
2022-10-19T17:12:12.693Z,14.57
2022-10-19T17:14:40.864Z,14.20
2022-10-19T17:17:08.521Z,11.80
2022-10-19T17:19:36.471Z,14.87
2022-10-19T17:22:05.290Z,13.30
2022-10-19T17:24:32.358Z,16.20
2022-10-19T17:27:00.476Z,16.37
2022-10-19T17:29:27.563Z,13.97
2022-10-19T17:31:54.652Z,15.47
2022-10-19T17:34:21.685Z,14.20
2022-10-19T17:36:49.155Z,15.37
2022-10-19T17:39:24.442Z,16.23
2022-10-19T17:41:54.688Z,11.17
2022-10-19T17:44:22.003Z,15.00
2022-10-19T17:46:49.250Z,18.27
2022-10-19T17:49:16.581Z,13.03
2022-10-19T17:51:43.789Z,14.10
2022-10-19T17:54:13.187Z,14.23
2022-10-19T17:56:40.670Z,15.87
2022-10-19T17:59:09.353Z,14.80
2022-10-19T18:01:37.258Z,15.77
2022-10-19T18:04:04.762Z,20.67
2022-10-19T18:06:33.231Z,17.10
2022-10-19T18:09:01.125Z,20.07
2022-10-19T18:11:29.881Z,14.87
2022-10-19T18:13:58.868Z,13.17
2022-10-19T18:16:32.531Z,18.30
2022-10-19T18:19:00.527Z,14.70
2022-10-19T18:21:30.225Z,15.17
2022-10-19T18:23:58.549Z,16.50
2022-10-19T18:26:26.958Z,14.23
2022-10-19T18:28:54.560Z,15.07
2022-10-19T18:31:23.505Z,15.57
2022-10-19T18:33:58.662Z,18.90
2022-10-19T18:36:25.932Z,13.27
2022-10-19T18:38:53.954Z,16.13
2022-10-19T18:41:21.426Z,14.80
2022-10-19T18:43:55.460Z,12.50
2022-10-19T18:46:23.402Z,14.23
2022-10-19T18:48:50.466Z,15.30
2022-10-19T18:51:18.575Z,14.33
2022-10-19T18:53:45.961Z,16.57
2022-10-19T18:56:14.313Z,15.83
2022-10-19T18:58:41.399Z,13.17
2022-10-19T19:01:13.238Z,14.47
2022-10-19T19:03:42.405Z,13.77
2022-10-19T19:06:11.804Z,15.83
2022-10-19T19:08:39.752Z,17.17
2022-10-19T19:11:11.727Z,15.47
2022-10-19T19:13:39.130Z,14.43
2022-10-19T19:16:06.797Z,15.57
2022-10-19T19:18:34.426Z,15.20
2022-10-19T19:21:02.285Z,13.03
2022-10-19T19:23:29.469Z,14.77
2022-10-19T19:25:56.767Z,14.50
2022-10-19T19:28:23.791Z,12.20
2022-10-19T19:30:50.985Z,14.50
2022-10-19T19:33:18.147Z,13.70
2022-10-19T19:35:45.917Z,11.93
2022-10-19T19:38:13.525Z,14.50
2022-10-19T19:40:41.621Z,15.87
2022-10-19T19:43:09.563Z,14.77
2022-10-19T19:45:37.457Z,15.67
2022-10-19T19:48:04.908Z,20.63
2022-10-19T19:50:32.166Z,14.00
2022-10-19T19:52:59.586Z,13.73
2022-10-19T19:55:27.051Z,14.17
2022-10-19T19:57:54.797Z,13.03
2022-10-19T20:00:22.862Z,13.27
2022-10-19T20:02:53.817Z,15.77
2022-10-19T20:05:20.894Z,19.17
2022-10-19T20:07:48.182Z,11.43
2022-10-19T20:10:18.417Z,13.53
2022-10-19T20:12:46.208Z,13.37
2022-10-19T20:15:14.227Z,16.33
2022-10-19T20:17:41.951Z,9.40
2022-10-19T20:20:09.781Z,16.30
2022-10-19T20:22:37.143Z,13.07
2022-10-19T20:25:04.939Z,12.23
2022-10-19T20:27:35.205Z,12.40
2022-10-19T20:30:02.821Z,12.27
2022-10-19T20:32:30.221Z,13.43
2022-10-19T20:34:57.290Z,12.87
2022-10-19T20:37:24.459Z,12.70
2022-10-19T20:39:51.593Z,12.37
2022-10-19T20:42:19.075Z,9.37
2022-10-19T20:44:46.330Z,13.67
2022-10-19T20:47:13.436Z,11.00
2022-10-19T20:49:41.053Z,14.20
2022-10-19T20:52:08.182Z,14.20
2022-10-19T20:54:36.007Z,13.03
2022-10-19T20:57:03.190Z,13.27
2022-10-19T20:59:31.668Z,12.63
2022-10-19T21:01:58.913Z,11.67
2022-10-19T21:04:26.215Z,10.63
2022-10-19T21:06:53.455Z,9.80
2022-10-19T21:09:22.243Z,11.47
2022-10-19T21:11:50.344Z,12.27
2022-10-19T21:14:22.370Z,17.50
2022-10-19T21:16:52.480Z,15.20
2022-10-19T21:19:23.890Z,10.60
2022-10-19T21:21:52.975Z,12.97
2022-10-19T21:24:21.999Z,14.77
2022-10-19T21:26:49.317Z,10.97
2022-10-19T21:29:16.710Z,12.40
2022-10-19T21:31:47.993Z,14.47
2022-10-19T21:34:21.271Z,11.30
2022-10-19T21:36:48.538Z,14.97
2022-10-19T21:39:15.726Z,9.73
2022-10-19T21:41:42.717Z,9.90
2022-10-19T21:44:09.770Z,10.33
2022-10-19T21:46:36.822Z,11.27
2022-10-19T21:49:04.208Z,11.30
2022-10-19T21:51:44.623Z,11.60
2022-10-19T21:54:13.565Z,9.67
2022-10-19T21:56:40.802Z,14.20
2022-10-19T21:59:07.902Z,11.57
2022-10-19T22:01:38.700Z,9.73
2022-10-19T22:04:09.575Z,7.63
2022-10-19T22:06:36.927Z,12.90
2022-10-19T22:09:05.321Z,11.77
2022-10-19T22:11:32.439Z,10.67
2022-10-19T22:14:00.708Z,10.27
2022-10-19T22:16:28.306Z,9.67
2022-10-19T22:18:55.657Z,10.97
2022-10-19T22:21:24.918Z,12.73
2022-10-19T22:23:53.483Z,10.23
2022-10-19T22:26:23.421Z,11.77
2022-10-19T22:28:50.807Z,11.23
2022-10-19T22:31:17.898Z,9.23
2022-10-19T22:33:44.960Z,8.47
2022-10-19T22:36:13.189Z,8.67
2022-10-19T22:38:40.671Z,6.87
2022-10-19T22:41:07.934Z,11.63
2022-10-19T22:43:34.986Z,9.43
2022-10-19T22:46:02.175Z,10.63
2022-10-19T22:48:29.297Z,11.40
2022-10-19T22:50:56.586Z,9.90
2022-10-19T22:53:24.261Z,6.43
2022-10-19T22:55:51.491Z,8.53
2022-10-19T22:58:18.817Z,10.73
2022-10-19T23:00:45.889Z,8.33
2022-10-19T23:03:12.919Z,8.10
2022-10-19T23:05:40.082Z,7.20
2022-10-19T23:08:07.201Z,8.13
2022-10-19T23:10:34.231Z,8.47
2022-10-19T23:13:01.236Z,9.80
2022-10-19T23:15:28.291Z,11.07
2022-10-19T23:17:55.392Z,11.17
2022-10-19T23:20:22.461Z,8.73
2022-10-19T23:22:50.529Z,11.27
2022-10-19T23:25:17.625Z,8.60
2022-10-19T23:27:44.646Z,9.13
2022-10-19T23:30:11.825Z,9.13
2022-10-19T23:32:38.837Z,8.57
2022-10-19T23:35:07.348Z,9.83
2022-10-19T23:37:37.775Z,10.80
2022-10-19T23:40:05.629Z,7.97
2022-10-19T23:42:32.721Z,8.50
2022-10-19T23:44:59.763Z,8.87
2022-10-19T23:47:26.993Z,9.60
2022-10-19T23:49:54.275Z,8.40
2022-10-19T23:52:21.199Z,9.77
2022-10-19T23:54:48.473Z,8.40
2022-10-19T23:57:15.559Z,7.93
2022-10-19T23:59:42.636Z,10.53
